Time;durP1;ratioP1;P1;durP2;ratioP2;P2;SDS_P1;SDS_P2;PMS_P1;PMS_P2;Temp;Humidity;BMP_temperature;BMP_pressure;BME280_temperature;BME280_humidity;BME280_pressure;Samples;Min_cycle;Max_cycle;Signal;HPM_P1;HPM_P2
2023/09/12 00:00:48;;;;;;;19.65;5.80;;;19.90;99.90;;;;;;4825569;29;20247;-95
2023/09/12 00:03:20;;;;;;;12.82;6.15;;;19.90;99.90;;;;;;4825135;29;20186;-96
2023/09/12 00:05:56;;;;;;;11.98;5.65;;;20.00;99.90;;;;;;4825706;29;20712;-96
2023/09/12 00:08:23;;;;;;;13.90;6.03;;;20.00;99.90;;;;;;4827043;29;20209;-96
2023/09/12 00:11:09;;;;;;;16.83;6.28;;;20.00;99.90;;;;;;4827331;29;20181;-95
2023/09/12 00:13:37;;;;;;;14.23;5.70;;;19.90;99.90;;;;;;4827802;29;20626;-96
2023/09/12 00:16:05;;;;;;;16.45;6.25;;;19.90;99.90;;;;;;4827473;29;20189;-95
2023/09/12 00:18:34;;;;;;;10.65;5.50;;;19.90;99.90;;;;;;4826030;29;20694;-95
2023/09/12 00:21:07;;;;;;;12.95;5.80;;;19.90;99.90;;;;;;4825993;29;20196;-96
2023/09/12 00:23:33;;;;;;;11.63;5.78;;;19.80;99.90;;;;;;4825371;29;20534;-95
2023/09/12 00:25:59;;;;;;;13.73;5.88;;;19.80;99.90;;;;;;4825494;29;20205;-95
2023/09/12 00:28:26;;;;;;;13.02;5.72;;;19.80;99.90;;;;;;4824893;29;20202;-96
2023/09/12 00:31:00;;;;;;;9.82;5.80;;;19.70;99.90;;;;;;4825470;29;20637;-95
2023/09/12 00:33:28;;;;;;;17.45;6.65;;;19.70;99.90;;;;;;4824896;29;20638;-95
2023/09/12 00:35:54;;;;;;;11.07;6.15;;;19.60;99.90;;;;;;5181664;24;20263;-95
2023/09/12 00:38:20;;;;;;;12.55;6.05;;;19.50;99.90;;;;;;4843333;29;20263;-93
2023/09/12 00:40:45;;;;;;;12.43;6.18;;;19.50;99.90;;;;;;4843165;29;20193;-91
2023/09/12 00:43:11;;;;;;;14.50;6.28;;;19.50;99.90;;;;;;4844237;29;20188;-93
2023/09/12 00:45:37;;;;;;;15.13;6.20;;;19.40;99.90;;;;;;4842977;29;20652;-91
2023/09/12 00:48:12;;;;;;;12.93;7.22;;;19.50;99.90;;;;;;4842841;29;20213;-93
2023/09/12 00:50:40;;;;;;;16.70;6.88;;;19.50;99.90;;;;;;4843053;29;20181;-91
2023/09/12 00:53:08;;;;;;;15.68;7.03;;;19.60;99.90;;;;;;4842815;29;20264;-88
2023/09/12 00:55:36;;;;;;;14.82;6.38;;;19.70;99.90;;;;;;4842699;29;20186;-88
2023/09/12 00:58:12;;;;;;;12.90;6.50;;;19.70;99.90;;;;;;4842932;29;20272;-93
2023/09/12 01:00:37;;;;;;;13.32;6.38;;;19.70;99.90;;;;;;4842977;29;20185;-93
2023/09/12 01:03:04;;;;;;;13.95;6.07;;;19.70;99.90;;;;;;4844379;29;20177;-91
2023/09/12 01:05:29;;;;;;;15.95;7.18;;;19.70;99.90;;;;;;4843934;29;20695;-88
2023/09/12 01:07:56;;;;;;;15.32;6.97;;;19.60;99.90;;;;;;4844985;29;20628;-93
2023/09/12 01:10:22;;;;;;;13.07;7.20;;;19.60;99.90;;;;;;4845945;29;20184;-89
2023/09/12 01:12:47;;;;;;;14.82;7.10;;;19.60;99.90;;;;;;4845125;29;20188;-86
2023/09/12 01:15:14;;;;;;;10.48;6.60;;;19.60;99.90;;;;;;4845407;29;20279;-89
2023/09/12 01:17:46;;;;;;;17.05;7.35;;;19.60;99.90;;;;;;4845811;29;20177;-94
2023/09/12 01:20:16;;;;;;;16.08;6.88;;;19.60;99.90;;;;;;4862251;29;20180;-87
2023/09/12 01:23:10;;;;;;;16.90;7.82;;;19.50;99.90;;;;;;4848172;29;20620;-94
2023/09/12 01:26:00;;;;;;;18.05;7.00;;;19.40;99.90;;;;;;4849268;29;20656;-94
2023/09/12 01:28:31;;;;;;;12.60;6.85;;;19.40;99.90;;;;;;4849159;29;20198;-91
2023/09/12 01:30:58;;;;;;;15.65;6.90;;;19.20;99.90;;;;;;4849106;29;20615;-93
2023/09/12 01:33:24;;;;;;;12.50;6.70;;;19.10;99.90;;;;;;4849316;29;20267;-93
2023/09/12 01:35:50;;;;;;;13.20;7.53;;;19.10;99.90;;;;;;4848813;29;20241;-90
2023/09/12 01:38:37;;;;;;;13.90;7.32;;;19.10;99.90;;;;;;4848953;29;20192;-92
2023/09/12 01:41:03;;;;;;;14.82;7.50;;;19.00;99.90;;;;;;4848957;29;20272;-93
2023/09/12 01:43:31;;;;;;;17.58;8.07;;;19.00;99.90;;;;;;4848793;29;20188;-90
2023/09/12 01:45:59;;;;;;;21.20;8.10;;;19.00;99.90;;;;;;4848899;29;20306;-92
2023/09/12 01:48:36;;;;;;;19.05;8.25;;;19.00;99.90;;;;;;4848633;29;20185;-92
2023/09/12 01:51:03;;;;;;;16.25;8.15;;;19.00;99.90;;;;;;4865057;29;20169;-93
2023/09/12 01:53:30;;;;;;;12.57;7.60;;;19.00;99.90;;;;;;4848904;29;20176;-93
2023/09/12 01:55:57;;;;;;;15.88;8.57;;;19.00;99.90;;;;;;4848757;29;20192;-92
2023/09/12 01:58:26;;;;;;;16.38;7.90;;;19.00;99.90;;;;;;4848637;29;20189;-91
2023/09/12 02:00:52;;;;;;;14.98;7.90;;;19.00;99.90;;;;;;4848480;29;20188;-90
2023/09/12 02:03:17;;;;;;;14.52;8.38;;;18.90;99.90;;;;;;4848604;29;20184;-93
2023/09/12 02:05:44;;;;;;;17.73;8.40;;;19.00;99.90;;;;;;4848395;29;20551;-93
2023/09/12 02:08:10;;;;;;;18.88;9.60;;;19.00;99.90;;;;;;4848141;29;20243;-92
2023/09/12 02:10:36;;;;;;;17.20;9.20;;;19.10;99.90;;;;;;4848398;29;20279;-91
2023/09/12 02:13:02;;;;;;;20.35;10.45;;;19.00;99.90;;;;;;4848567;29;20212;-93
2023/09/12 02:15:28;;;;;;;20.25;10.20;;;19.00;99.90;;;;;;4848290;29;20216;-92
2023/09/12 02:17:53;;;;;;;22.02;9.82;;;19.00;99.90;;;;;;4848093;29;20180;-91
2023/09/12 02:20:20;;;;;;;16.02;8.95;;;19.00;99.90;;;;;;4848185;29;20181;-90
2023/09/12 02:22:46;;;;;;;17.27;9.98;;;19.00;99.90;;;;;;4847959;29;20263;-93
2023/09/12 02:25:11;;;;;;;21.25;9.68;;;19.00;99.90;;;;;;4847948;29;20220;-93
2023/09/12 02:27:37;;;;;;;17.65;10.10;;;19.00;99.90;;;;;;4848059;29;20181;-90
2023/09/12 02:30:04;;;;;;;19.90;9.60;;;19.00;99.90;;;;;;4848061;29;20324;-93
2023/09/12 02:32:30;;;;;;;19.10;9.18;;;19.00;99.90;;;;;;4847757;29;20176;-93
2023/09/12 02:34:57;;;;;;;20.80;10.18;;;19.00;99.90;;;;;;4847607;29;20195;-94
2023/09/12 02:37:23;;;;;;;27.40;9.52;;;19.00;99.90;;;;;;4876462;29;20228;-94
2023/09/12 02:39:48;;;;;;;20.25;8.98;;;19.10;99.90;;;;;;4866121;29;20184;-93
2023/09/12 02:42:14;;;;;;;21.67;9.55;;;19.00;99.90;;;;;;4882864;29;20186;-93
2023/09/12 02:44:40;;;;;;;19.38;10.40;;;19.00;99.90;;;;;;4866220;29;20208;-92
2023/09/12 02:47:06;;;;;;;20.13;9.90;;;18.90;99.90;;;;;;4866398;29;20620;-92
2023/09/12 02:49:34;;;;;;;21.88;10.35;;;18.90;99.90;;;;;;4866162;29;20354;-93
2023/09/12 02:51:59;;;;;;;20.52;9.80;;;18.90;99.90;;;;;;4882620;29;20187;-92
2023/09/12 02:54:25;;;;;;;18.23;9.43;;;18.80;99.90;;;;;;4866110;29;20176;-92
2023/09/12 02:56:51;;;;;;;16.80;9.32;;;18.80;99.90;;;;;;4865896;29;20195;-88
2023/09/12 02:59:25;;;;;;;21.75;10.35;;;18.80;99.90;;;;;;4865568;29;20266;-89
2023/09/12 03:01:51;;;;;;;23.25;9.65;;;18.80;99.90;;;;;;4866256;29;20638;-92
2023/09/12 03:04:17;;;;;;;21.52;10.55;;;18.80;99.90;;;;;;4865883;29;20180;-90
2023/09/12 03:06:43;;;;;;;25.25;11.45;;;18.70;99.90;;;;;;4865557;29;20184;-91
2023/09/12 03:09:11;;;;;;;20.77;10.70;;;18.70;99.90;;;;;;4865672;29;20235;-91
2023/09/12 03:11:37;;;;;;;18.17;10.88;;;18.70;99.90;;;;;;4865499;29;20172;-89
2023/09/12 03:14:03;;;;;;;16.90;10.57;;;18.60;99.90;;;;;;4865635;29;20180;-89
2023/09/12 03:16:28;;;;;;;23.45;11.13;;;18.60;99.90;;;;;;4865331;29;20183;-92
2023/09/12 03:18:54;;;;;;;16.40;10.00;;;18.50;99.90;;;;;;4865263;29;20267;-92
2023/09/12 03:21:20;;;;;;;22.13;10.40;;;18.50;99.90;;;;;;4882077;29;20604;-90
2023/09/12 03:23:45;;;;;;;20.35;10.20;;;18.50;99.90;;;;;;4865212;29;20240;-89
2023/09/12 03:26:11;;;;;;;22.73;10.65;;;18.60;99.90;;;;;;4865147;29;20219;-92
2023/09/12 03:28:45;;;;;;;17.63;9.82;;;18.50;99.90;;;;;;4865646;29;20191;-91
2023/09/12 03:31:13;;;;;;;16.02;10.57;;;18.40;99.90;;;;;;4865379;29;20190;-92
2023/09/12 03:33:40;;;;;;;16.65;10.82;;;18.30;99.90;;;;;;4865756;29;20266;-92
2023/09/12 03:36:07;;;;;;;24.23;10.10;;;18.30;99.90;;;;;;4881928;29;20227;-92
2023/09/12 03:38:34;;;;;;;20.48;11.07;;;18.40;99.90;;;;;;4865083;29;20287;-92
2023/09/12 03:41:01;;;;;;;16.50;10.88;;;18.40;99.90;;;;;;4881898;29;20160;-92
2023/09/12 03:43:27;;;;;;;16.17;11.18;;;18.40;99.90;;;;;;4865398;29;20236;-91
2023/09/12 03:45:53;;;;;;;20.75;10.88;;;18.40;99.90;;;;;;4864908;29;20223;-91
2023/09/12 03:48:19;;;;;;;18.75;10.65;;;18.30;99.90;;;;;;4865236;29;20274;-91
2023/09/12 03:50:46;;;;;;;21.02;11.77;;;18.40;99.90;;;;;;4881867;29;20191;-90
2023/09/12 03:53:14;;;;;;;21.50;11.45;;;18.30;99.90;;;;;;4864939;29;20172;-88
2023/09/12 03:55:40;;;;;;;20.45;11.13;;;18.40;99.90;;;;;;4865022;29;20623;-90
2023/09/12 03:58:05;;;;;;;18.83;11.77;;;18.40;99.90;;;;;;4865006;29;20184;-91
2023/09/12 04:00:37;;;;;;;21.38;11.52;;;18.40;99.90;;;;;;4865002;29;20187;-92
2023/09/12 04:03:03;;;;;;;21.40;12.50;;;18.40;99.90;;;;;;4881789;29;20161;-91
2023/09/12 04:05:29;;;;;;;21.80;12.13;;;18.30;99.90;;;;;;4864799;29;20714;-92
2023/09/12 04:07:55;;;;;;;14.80;12.27;;;18.40;99.90;;;;;;4865066;29;20180;-89
2023/09/12 04:10:26;;;;;;;16.33;10.93;;;18.40;99.90;;;;;;4881468;29;20187;-91
2023/09/12 04:12:52;;;;;;;17.23;11.10;;;18.40;99.90;;;;;;4864857;29;20172;-90
2023/09/12 04:15:18;;;;;;;17.02;11.55;;;18.40;99.90;;;;;;4865194;29;20206;-89
2023/09/12 04:17:43;;;;;;;15.38;11.05;;;18.50;99.90;;;;;;4864592;29;20180;-89
2023/09/12 04:20:13;;;;;;;17.98;11.50;;;18.40;99.90;;;;;;4864613;29;20611;-92
2023/09/12 04:22:40;;;;;;;22.10;11.13;;;18.40;99.90;;;;;;4857942;29;20350;-89
2023/09/12 04:25:06;;;;;;;15.52;11.13;;;18.40;99.90;;;;;;4851855;29;20223;-91
2023/09/12 04:27:32;;;;;;;17.75;10.45;;;18.50;99.90;;;;;;4853371;29;20184;-92
2023/09/12 04:29:58;;;;;;;17.98;11.35;;;18.50;99.90;;;;;;4851876;29;20195;-90
2023/09/12 04:32:23;;;;;;;19.08;11.43;;;18.40;99.90;;;;;;4850990;29;20234;-90
2023/09/12 04:34:50;;;;;;;17.73;11.18;;;18.40;99.90;;;;;;4858300;29;20186;-93
2023/09/12 04:37:15;;;;;;;14.85;10.52;;;18.40;99.90;;;;;;4854735;29;20611;-92
2023/09/12 04:39:49;;;;;;;19.10;12.00;;;18.20;99.90;;;;;;4843946;29;20196;-88
2023/09/12 04:42:15;;;;;;;18.67;11.77;;;18.30;99.90;;;;;;4861344;29;20180;-88
2023/09/12 04:44:42;;;;;;;17.27;12.45;;;18.40;99.90;;;;;;4861309;29;20212;-89
2023/09/12 04:47:08;;;;;;;17.52;11.80;;;18.40;99.90;;;;;;4862377;29;20188;-88
2023/09/12 04:49:35;;;;;;;19.55;13.48;;;18.50;99.90;;;;;;4861096;29;20180;-87
2023/09/12 04:52:04;;;;;;;19.08;13.40;;;18.50;99.90;;;;;;4861118;29;20612;-89
2023/09/12 04:54:30;;;;;;;21.05;14.15;;;18.60;99.90;;;;;;4847039;29;20197;-91
2023/09/12 04:56:55;;;;;;;20.02;14.13;;;18.60;99.90;;;;;;4844255;29;20712;-91
2023/09/12 04:59:21;;;;;;;18.42;13.70;;;18.60;99.90;;;;;;4846500;29;20276;-89
2023/09/12 05:01:47;;;;;;;17.92;13.98;;;18.60;99.90;;;;;;4846532;29;20572;-88
2023/09/12 05:04:12;;;;;;;18.02;14.30;;;18.60;99.90;;;;;;4846703;29;20197;-89
2023/09/12 05:06:39;;;;;;;17.35;14.48;;;18.60;99.90;;;;;;4846266;29;20186;-89
2023/09/12 05:09:08;;;;;;;19.88;13.90;;;18.60;99.90;;;;;;4846590;29;20636;-92
2023/09/12 05:11:34;;;;;;;16.73;13.43;;;18.70;99.90;;;;;;4846405;29;20225;-90
2023/09/12 05:14:03;;;;;;;21.13;13.63;;;18.70;99.90;;;;;;4846375;29;20185;-91
2023/09/12 05:16:29;;;;;;;21.00;13.55;;;18.70;99.90;;;;;;4846246;29;20181;-90
2023/09/12 05:18:55;;;;;;;19.38;13.95;;;18.70;99.90;;;;;;4846333;29;20255;-90
2023/09/12 05:21:20;;;;;;;20.02;12.60;;;18.70;99.90;;;;;;4846306;29;20183;-89
2023/09/12 05:23:46;;;;;;;14.35;12.63;;;18.70;99.90;;;;;;4846112;29;20204;-90
2023/09/12 05:26:12;;;;;;;20.77;12.90;;;18.70;99.90;;;;;;4846066;29;20217;-90
2023/09/12 05:28:38;;;;;;;17.95;12.60;;;18.80;99.90;;;;;;4845987;29;20524;-88
2023/09/12 05:31:04;;;;;;;15.40;12.68;;;18.90;99.90;;;;;;4845947;29;20236;-88
2023/09/12 05:33:30;;;;;;;18.13;12.38;;;18.90;99.90;;;;;;4847034;29;20174;-87
2023/09/12 05:35:56;;;;;;;20.52;12.18;;;19.00;99.90;;;;;;4848958;29;20288;-86
2023/09/12 05:38:22;;;;;;;15.65;11.80;;;19.10;99.90;;;;;;4848537;29;20188;-92
2023/09/12 05:40:50;;;;;;;19.77;12.50;;;19.20;99.90;;;;;;4849022;29;20526;-90
2023/09/12 05:43:16;;;;;;;20.75;10.95;;;19.30;99.90;;;;;;4848991;29;20217;-91
2023/09/12 05:45:43;;;;;;;16.58;12.30;;;19.40;99.90;;;;;;4848635;29;20275;-90
2023/09/12 05:48:09;;;;;;;14.05;11.52;;;19.40;99.90;;;;;;4848665;29;20181;-88
2023/09/12 05:50:38;;;;;;;18.33;12.40;;;19.50;99.90;;;;;;4848436;29;20191;-91
2023/09/12 05:53:04;;;;;;;17.10;12.90;;;19.60;99.90;;;;;;4848608;29;20558;-91
2023/09/12 05:55:30;;;;;;;16.67;12.48;;;19.70;99.90;;;;;;4848853;29;20267;-86
2023/09/12 05:57:55;;;;;;;16.98;11.25;;;19.70;99.90;;;;;;4847723;29;20316;-87
2023/09/12 06:00:28;;;;;;;14.00;10.88;;;19.80;99.90;;;;;;4848495;29;20189;-90
2023/09/12 06:02:54;;;;;;;14.70;10.70;;;19.90;99.90;;;;;;4848973;29;20176;-93
2023/09/12 06:05:19;;;;;;;14.75;10.30;;;19.90;99.90;;;;;;4848301;29;20216;-87
2023/09/12 06:07:46;;;;;;;13.32;9.82;;;19.90;99.90;;;;;;4847518;29;20189;-89
2023/09/12 06:10:12;;;;;;;14.40;9.73;;;19.80;99.90;;;;;;4848552;29;20181;-92
2023/09/12 06:12:38;;;;;;;13.48;9.27;;;19.90;99.90;;;;;;4848639;29;20269;-91
2023/09/12 06:15:04;;;;;;;12.98;9.23;;;19.90;99.90;;;;;;4848782;29;20549;-92
2023/09/12 06:17:31;;;;;;;11.00;9.90;;;19.80;99.90;;;;;;4848396;29;20276;-90
2023/09/12 06:19:56;;;;;;;15.32;10.43;;;19.80;99.90;;;;;;4848372;29;20191;-90
2023/09/12 06:22:25;;;;;;;10.57;9.32;;;19.80;99.90;;;;;;4847968;29;20181;-90
2023/09/12 06:24:51;;;;;;;12.73;9.02;;;19.70;99.90;;;;;;4847686;29;20215;-92
2023/09/12 06:27:19;;;;;;;14.27;9.50;;;19.70;99.90;;;;;;4848096;29;20669;-90
2023/09/12 06:29:49;;;;;;;14.68;9.95;;;19.70;99.90;;;;;;4847896;29;20185;-90
2023/09/12 06:32:17;;;;;;;17.70;9.25;;;19.70;99.90;;;;;;4864522;29;20236;-91
2023/09/12 06:34:43;;;;;;;14.00;9.77;;;19.70;99.90;;;;;;4848176;29;20203;-91
2023/09/12 06:37:13;;;;;;;15.73;9.98;;;19.60;99.90;;;;;;4847131;29;20240;-90
2023/09/12 06:39:39;;;;;;;14.60;9.18;;;19.60;99.90;;;;;;4847994;29;20181;-90
2023/09/12 06:42:05;;;;;;;11.65;9.40;;;19.60;99.90;;;;;;4847650;29;20181;-91
2023/09/12 06:44:31;;;;;;;13.70;9.63;;;19.60;99.90;;;;;;4847312;29;20599;-89
2023/09/12 06:46:57;;;;;;;16.35;9.95;;;19.60;99.90;;;;;;4847262;29;20180;-90
2023/09/12 06:49:22;;;;;;;13.75;10.13;;;19.60;99.90;;;;;;4847778;29;20181;-90
2023/09/12 06:51:48;;;;;;;12.73;10.13;;;19.70;99.90;;;;;;4847605;29;20244;-90
2023/09/12 06:54:15;;;;;;;12.40;9.05;;;19.70;99.90;;;;;;4847629;29;20173;-89
2023/09/12 06:56:42;;;;;;;17.02;10.00;;;19.70;99.90;;;;;;4847305;29;20203;-88
2023/09/12 06:59:08;;;;;;;19.65;10.55;;;19.60;99.90;;;;;;4847141;29;20199;-88
2023/09/12 07:01:35;;;;;;;17.70;9.60;;;19.60;99.90;;;;;;4847848;29;20192;-91
2023/09/12 07:04:01;;;;;;;29.55;13.05;;;19.50;99.90;;;;;;4864241;29;20173;-88
2023/09/12 07:06:27;;;;;;;19.35;10.77;;;19.40;99.90;;;;;;4847184;29;20308;-88
2023/09/12 07:08:52;;;;;;;18.80;11.38;;;19.30;99.90;;;;;;4847673;29;20212;-90
2023/09/12 07:11:19;;;;;;;18.67;8.35;;;19.20;99.90;;;;;;4847640;29;20212;-92
2023/09/12 07:13:45;;;;;;;17.63;9.05;;;19.10;99.90;;;;;;4848222;29;20181;-94
2023/09/12 07:16:11;;;;;;;16.33;9.68;;;19.00;99.90;;;;;;4847781;29;20228;-91
2023/09/12 07:18:37;;;;;;;13.02;8.77;;;19.00;99.90;;;;;;4845873;29;20241;-94
2023/09/12 07:21:11;;;;;;;12.18;8.00;;;18.90;99.90;;;;;;4847979;29;20569;-96
2023/09/12 07:23:37;;;;;;;9.45;7.20;;;18.90;99.90;;;;;;4867787;24;20245;-94
2023/09/12 07:26:03;;;;;;;12.40;7.30;;;19.00;99.90;;;;;;4852016;29;20206;-95
2023/09/12 07:28:30;;;;;;;13.70;8.85;;;18.90;99.90;;;;;;4836214;29;20202;-95
2023/09/12 07:30:57;;;;;;;13.30;8.30;;;18.90;99.90;;;;;;4834561;29;20178;-94
2023/09/12 07:33:23;;;;;;;16.88;8.45;;;18.90;99.90;;;;;;4834887;29;20231;-93
2023/09/12 07:35:52;;;;;;;14.13;8.20;;;18.90;99.90;;;;;;4834916;29;20246;-95
2023/09/12 07:38:19;;;;;;;12.55;7.93;;;18.80;99.90;;;;;;4833885;29;20267;-95
2023/09/12 07:40:45;;;;;;;12.25;7.57;;;18.80;99.90;;;;;;4834371;29;20174;-95
2023/09/12 07:43:11;;;;;;;10.48;7.47;;;18.70;99.90;;;;;;4833254;29;20178;-94
2023/09/12 07:45:37;;;;;;;10.77;7.28;;;18.70;99.90;;;;;;4831596;29;20198;-96
2023/09/12 07:48:08;;;;;;;9.73;6.70;;;18.70;99.90;;;;;;4831104;29;20266;-95
2023/09/12 07:50:34;;;;;;;11.63;6.32;;;18.70;99.90;;;;;;4831016;29;20247;-94
2023/09/12 07:53:00;;;;;;;8.80;6.00;;;18.70;99.90;;;;;;4831147;29;20180;-95
2023/09/12 07:55:30;;;;;;;8.52;5.93;;;18.60;99.90;;;;;;4830760;29;20281;-94
2023/09/12 07:57:56;;;;;;;9.02;5.05;;;18.60;99.90;;;;;;4831279;29;20202;-93
2023/09/12 08:00:21;;;;;;;7.05;5.72;;;18.60;99.90;;;;;;4829990;29;20174;-94
2023/09/12 08:02:47;;;;;;;6.90;5.55;;;18.60;99.90;;;;;;4830379;29;20646;-94
2023/09/12 08:05:14;;;;;;;8.55;5.88;;;18.60;99.90;;;;;;4830344;29;20214;-94
2023/09/12 08:07:41;;;;;;;11.43;6.35;;;18.70;99.90;;;;;;4831219;29;20198;-93
2023/09/12 08:10:07;;;;;;;6.82;5.40;;;18.70;99.90;;;;;;4831491;29;20182;-94
2023/09/12 08:12:38;;;;;;;5.85;4.57;;;18.70;99.90;;;;;;4831360;29;20269;-94
2023/09/12 08:15:05;;;;;;;5.85;3.55;;;18.70;99.90;;;;;;4830329;29;20182;-96
2023/09/12 08:17:31;;;;;;;7.53;4.00;;;18.70;99.90;;;;;;4831408;29;20206;-94
2023/09/12 08:19:57;;;;;;;3.30;2.95;;;18.70;99.90;;;;;;4831071;29;20174;-94
2023/09/12 08:22:24;;;;;;;4.72;3.17;;;18.70;99.90;;;;;;4831433;29;20186;-95
2023/09/12 08:24:50;;;;;;;6.15;3.50;;;18.70;99.90;;;;;;4831801;29;20238;-95
2023/09/12 08:27:16;;;;;;;5.22;3.60;;;18.70;99.90;;;;;;4831307;29;20217;-96
2023/09/12 08:29:44;;;;;;;4.22;3.10;;;18.70;99.90;;;;;;4831315;29;20235;-95
2023/09/12 08:32:10;;;;;;;4.57;3.15;;;18.80;99.90;;;;;;4833320;29;20716;-94
2023/09/12 08:34:37;;;;;;;4.82;3.00;;;18.80;99.90;;;;;;4834991;29;20182;-93
2023/09/12 08:37:03;;;;;;;3.85;2.72;;;18.80;99.90;;;;;;4834641;29;20261;-96
2023/09/12 08:39:43;;;;;;;3.45;2.63;;;18.90;99.90;;;;;;4835031;29;20178;-96
2023/09/12 08:42:13;;;;;;;4.82;2.72;;;18.90;99.90;;;;;;4834412;29;20178;-95
2023/09/12 08:44:41;;;;;;;3.55;2.70;;;19.00;99.90;;;;;;4834873;29;20258;-96
2023/09/12 08:47:11;;;;;;;3.03;2.72;;;19.00;99.90;;;;;;4835397;29;20206;-96
2023/09/12 08:49:37;;;;;;;3.22;2.70;;;19.00;99.90;;;;;;4835527;29;20174;-96
2023/09/12 08:52:05;;;;;;;3.75;2.60;;;19.10;99.90;;;;;;4835316;29;20268;-96
2023/09/12 08:54:36;;;;;;;3.40;2.75;;;19.10;99.90;;;;;;4834486;29;20628;-94
2023/09/12 08:57:04;;;;;;;3.78;2.70;;;19.10;99.90;;;;;;4834374;29;20567;-95
2023/09/12 08:59:33;;;;;;;3.47;2.88;;;19.20;99.90;;;;;;4837737;29;20181;-94
2023/09/12 09:02:01;;;;;;;3.97;2.95;;;19.30;99.90;;;;;;4837365;29;20185;-94
2023/09/12 09:04:34;;;;;;;6.68;2.90;;;19.30;99.90;;;;;;4838211;29;20178;-96
2023/09/12 09:07:04;;;;;;;3.80;3.20;;;19.30;99.90;;;;;;4837727;29;20210;-96
2023/09/12 09:09:31;;;;;;;4.70;3.67;;;19.30;99.90;;;;;;4837996;29;20175;-96
2023/09/12 09:11:57;;;;;;;4.28;3.40;;;19.30;99.90;;;;;;4834392;29;20198;-95
2023/09/12 09:14:23;;;;;;;4.32;3.85;;;19.30;99.90;;;;;;4836809;29;20230;-95
2023/09/12 09:16:50;;;;;;;6.95;4.53;;;19.30;99.90;;;;;;4834041;29;20202;-95
2023/09/12 09:19:18;;;;;;;7.50;4.80;;;19.40;99.90;;;;;;4833978;29;20171;-96
2023/09/12 09:21:45;;;;;;;5.90;5.20;;;19.40;99.90;;;;;;4834128;29;20182;-96
2023/09/12 09:24:15;;;;;;;9.93;5.90;;;19.50;99.90;;;;;;4833390;29;20230;-95
2023/09/12 09:26:48;;;;;;;6.07;5.20;;;19.60;99.90;;;;;;4833221;29;20218;-94
2023/09/12 09:29:19;;;;;;;8.90;5.47;;;19.70;99.90;;;;;;4832517;29;20185;-96
2023/09/12 09:31:50;;;;;;;8.02;5.95;;;19.80;99.90;;;;;;4833367;29;20593;-95
2023/09/12 09:34:18;;;;;;;8.98;5.85;;;19.80;99.90;;;;;;4833355;29;20186;-94
2023/09/12 09:36:51;;;;;;;6.00;5.40;;;19.90;99.90;;;;;;4833009;29;20198;-96
2023/09/12 09:39:20;;;;;;;6.70;5.00;;;20.00;99.90;;;;;;4832672;29;20185;-96
2023/09/12 09:41:52;;;;;;;12.25;5.35;;;20.10;99.90;;;;;;4832478;29;20222;-95
2023/09/12 09:44:20;;;;;;;7.60;4.53;;;20.20;99.90;;;;;;4832450;29;20197;-94
2023/09/12 09:46:50;;;;;;;6.20;4.63;;;20.40;99.90;;;;;;4832900;29;20226;-95
2023/09/12 09:49:19;;;;;;;5.88;4.40;;;20.60;99.90;;;;;;4832754;29;20192;-95
2023/09/12 09:51:46;;;;;;;7.68;4.80;;;20.70;99.90;;;;;;4832703;29;20174;-95
2023/09/12 09:54:13;;;;;;;6.95;4.85;;;20.80;99.90;;;;;;4832485;29;20178;-95
2023/09/12 09:56:49;;;;;;;7.82;5.18;;;21.00;99.90;;;;;;4832438;29;20206;-96
2023/09/12 09:59:23;;;;;;;5.90;4.78;;;21.20;99.90;;;;;;4832207;29;20234;-96
2023/09/12 10:01:53;;;;;;;5.40;4.72;;;21.30;99.90;;;;;;4832347;29;20181;-95
2023/09/12 10:04:22;;;;;;;4.78;4.35;;;21.50;99.90;;;;;;4832456;29;20182;-95
2023/09/12 10:06:49;;;;;;;4.93;4.10;;;21.60;99.90;;;;;;4830860;29;20244;-95
2023/09/12 10:09:22;;;;;;;4.00;3.60;;;21.60;99.90;;;;;;4831301;29;20216;-95
2023/09/12 10:11:50;;;;;;;5.63;3.17;;;21.70;99.90;;;;;;4832424;29;20193;-96
2023/09/12 10:14:20;;;;;;;5.43;3.60;;;21.70;99.90;;;;;;4831674;29;20174;-94
2023/09/12 10:16:48;;;;;;;3.95;3.55;;;21.60;99.90;;;;;;4831532;29;20258;-95
2023/09/12 10:19:22;;;;;;;4.05;3.65;;;21.70;99.90;;;;;;4830843;29;20643;-95
2023/09/12 10:21:55;;;;;;;4.43;3.83;;;21.80;99.90;;;;;;4831441;29;20170;-95
2023/09/12 10:24:22;;;;;;;8.32;4.13;;;21.80;99.90;;;;;;4831952;29;20301;-96
2023/09/12 10:26:50;;;;;;;5.28;4.43;;;21.90;99.90;;;;;;4831986;29;20202;-95
2023/09/12 10:29:16;;;;;;;5.55;4.38;;;22.00;99.90;;;;;;4830909;29;20662;-95
2023/09/12 10:31:44;;;;;;;4.88;4.20;;;21.90;99.90;;;;;;4831108;29;20181;-94
2023/09/12 10:34:12;;;;;;;6.20;3.45;;;21.90;99.90;;;;;;4831001;29;20208;-96
2023/09/12 10:36:43;;;;;;;2.83;2.50;;;21.90;99.90;;;;;;4830452;29;20206;-95
2023/09/12 10:39:10;;;;;;;3.15;2.85;;;21.80;99.90;;;;;;4831578;29;20193;-95
2023/09/12 10:41:40;;;;;;;6.10;3.90;;;21.70;99.90;;;;;;4831591;29;20178;-95
2023/09/12 10:44:16;;;;;;;8.05;3.75;;;21.60;99.90;;;;;;4831259;29;20182;-95
2023/09/12 10:46:44;;;;;;;5.85;4.07;;;21.60;99.90;;;;;;4831527;29;20273;-95
2023/09/12 10:49:13;;;;;;;4.05;3.55;;;21.70;99.90;;;;;;4830964;29;20178;-96
2023/09/12 10:51:41;;;;;;;5.90;4.15;;;21.90;99.90;;;;;;4830132;29;20178;-96
2023/09/12 10:54:08;;;;;;;5.25;3.40;;;22.00;99.90;;;;;;4829680;29;20182;-96
2023/09/12 10:56:34;;;;;;;3.90;3.40;;;22.10;99.90;;;;;;4831104;29;20186;-95
2023/09/12 10:59:06;;;;;;;3.90;3.20;;;22.20;99.90;;;;;;4830958;29;20185;-96
2023/09/12 11:01:40;;;;;;;3.38;3.08;;;22.30;99.90;;;;;;4830017;29;20189;-96
2023/09/12 11:04:23;;;;;;;3.55;2.85;;;22.40;99.90;;;;;;4830824;29;20182;-95
2023/09/12 11:06:50;;;;;;;4.05;2.97;;;22.40;99.90;;;;;;4828878;29;20266;-96
2023/09/12 11:09:22;;;;;;;4.03;2.65;;;22.40;99.90;;;;;;4829168;29;20191;-96
2023/09/12 11:11:58;;;;;;;2.75;2.42;;;22.40;99.90;;;;;;4827793;29;20211;-95
2023/09/12 11:14:26;;;;;;;2.97;2.58;;;22.30;99.90;;;;;;4826964;29;20182;-96
2023/09/12 11:17:22;;;;;;;6.10;2.50;;;22.30;99.90;;;;;;4826685;29;20289;-96
2023/09/12 11:19:52;;;;;;;3.75;2.50;;;22.30;99.90;;;;;;4827018;29;20268;-96
2023/09/12 11:22:45;;;;;;;3.25;2.90;;;22.30;99.90;;;;;;4826712;29;20643;-96
2023/09/12 11:25:27;;;;;;;3.65;2.83;;;22.30;99.90;;;;;;4825602;29;20267;-95
2023/09/12 11:27:53;;;;;;;3.55;2.80;;;22.40;99.90;;;;;;4826948;29;20205;-95
2023/09/12 11:30:25;;;;;;;2.83;2.63;;;22.40;99.90;;;;;;4811850;29;20639;-96
2023/09/12 11:32:53;;;;;;;3.75;2.83;;;22.40;99.90;;;;;;4826833;29;20189;-96
2023/09/12 11:35:27;;;;;;;5.50;3.35;;;22.40;99.90;;;;;;4827287;29;20273;-94
2023/09/12 11:37:58;;;;;;;5.25;2.95;;;22.30;99.90;;;;;;4826656;29;20313;-94
2023/09/12 11:40:44;;;;;;;4.47;3.20;;;22.30;99.90;;;;;;4827090;29;20209;-96
2023/09/12 11:43:25;;;;;;;4.88;3.45;;;22.30;99.90;;;;;;4825678;29;20257;-95
2023/09/12 11:45:51;;;;;;;4.82;3.63;;;22.30;99.90;;;;;;4810132;29;20583;-95
2023/09/12 11:48:18;;;;;;;4.30;3.90;;;22.20;99.90;;;;;;4824480;29;20290;-95
2023/09/12 11:50:50;;;;;;;4.85;3.80;;;22.10;99.90;;;;;;4825808;29;20178;-95
2023/09/12 11:53:25;;;;;;;4.70;4.07;;;22.10;99.90;;;;;;4824502;29;20711;-96
2023/09/12 11:55:54;;;;;;;5.10;4.00;;;22.00;99.90;;;;;;4826303;29;20273;-96
2023/09/12 11:58:20;;;;;;;4.45;3.75;;;22.00;99.90;;;;;;4825494;29;20239;-96
2023/09/12 12:00:49;;;;;;;4.32;3.72;;;22.00;99.90;;;;;;4824952;29;20178;-95
2023/09/12 12:03:16;;;;;;;5.20;3.90;;;22.00;99.90;;;;;;4826304;29;20182;-94
2023/09/12 12:05:42;;;;;;;6.20;4.38;;;22.00;99.90;;;;;;4825168;29;20274;-95
2023/09/12 12:08:10;;;;;;;7.35;5.10;;;21.90;99.90;;;;;;4826003;29;20198;-95
2023/09/12 12:10:38;;;;;;;6.05;5.40;;;21.80;99.90;;;;;;4825338;29;20276;-94
2023/09/12 12:13:05;;;;;;;6.05;5.53;;;21.70;99.90;;;;;;4825585;29;20178;-96
2023/09/12 12:15:32;;;;;;;6.97;5.78;;;21.60;99.90;;;;;;4825375;29;20189;-96
2023/09/12 12:17:58;;;;;;;7.13;6.40;;;21.60;99.90;;;;;;4825371;29;20212;-94
2023/09/12 12:20:24;;;;;;;7.97;6.53;;;21.60;99.90;;;;;;4825198;29;20186;-96
2023/09/12 12:22:53;;;;;;;8.38;7.47;;;21.50;99.90;;;;;;4826132;29;20178;-96
2023/09/12 12:25:20;;;;;;;7.97;7.18;;;21.50;99.90;;;;;;4828933;29;20209;-95
2023/09/12 12:27:46;;;;;;;7.93;6.97;;;21.40;99.90;;;;;;4828714;29;20292;-95
2023/09/12 12:30:14;;;;;;;7.50;6.75;;;21.40;99.90;;;;;;4828034;29;20209;-96
2023/09/12 12:32:53;;;;;;;7.38;5.97;;;21.40;99.90;;;;;;4829209;29;20260;-94
2023/09/12 12:35:26;;;;;;;9.15;6.57;;;21.40;99.90;;;;;;4829023;29;20280;-95
2023/09/12 12:37:58;;;;;;;7.68;6.18;;;21.40;99.90;;;;;;4828801;29;20240;-95
2023/09/12 12:40:24;;;;;;;8.73;6.38;;;21.50;99.90;;;;;;4828465;29;20169;-94
2023/09/12 12:42:50;;;;;;;8.93;6.75;;;21.50;99.90;;;;;;4827663;29;20178;-95